Amsterdam, Missouri
Current Conditions -  °F | °C
As of 11:53 AM on Saturday 25 Oct 2014 (Local Time) from KOJC Reporting Station
Clear Clear  
Wind Chill: 23°   Ceiling: Unl
Heat Index: 23°   Visibility: 9mi
Dew Point: 17°   Wind: 3mph
Humidity: 68%   Direction: NA
Pressure: 30.08"   Gusts: NA
Location:  38.35°N, 94.59°W
Report Text: KOJC 251653Z VRB03KT 9SM CLR 23/17 A3008 RMK AO2 SLP179 T02330172
Loading
Personal Weather Stations






























Interactive Weather Map
Tropical Storm Tracking
New forecast layout! Learn more

10-Day Weather Forecast

Advertisements
Track Severe Weather on mobile